Time;durP1;ratioP1;P1;durP2;ratioP2;P2;SDS_P1;SDS_P2;PMS_P1;PMS_P2;Temp;Humidity;BMP_temperature;BMP_pressure;BME280_temperature;BME280_humidity;BME280_pressure;Samples;Min_cycle;Max_cycle;Signal;HPM_P1;HPM_P2
2021/08/28 00:00:14;;;;;;;19.33;9.35;;;14.60;99.90;;;;;;4980723;28;20482;-79
2021/08/28 00:02:41;;;;;;;13.63;8.30;;;14.60;99.90;;;;;;4980697;28;20078;-79
2021/08/28 00:05:09;;;;;;;17.98;7.95;;;14.70;99.90;;;;;;4981188;28;20133;-79
2021/08/28 00:07:35;;;;;;;18.95;7.55;;;14.70;99.90;;;;;;4981730;28;20134;-79
2021/08/28 00:10:05;;;;;;;16.48;7.82;;;14.70;99.90;;;;;;4982066;28;20084;-79
2021/08/28 00:12:32;;;;;;;19.23;7.57;;;14.70;99.90;;;;;;4981760;28;20173;-79
2021/08/28 00:17:34;;;;;;;21.25;7.78;;;14.70;99.90;;;;;;5003976;23;20438;-80
2021/08/28 00:20:01;;;;;;;18.63;8.80;;;14.70;99.90;;;;;;4990360;28;20046;-80
2021/08/28 00:22:28;;;;;;;18.75;10.05;;;14.80;99.90;;;;;;4972692;28;20055;-80
2021/08/28 00:24:54;;;;;;;19.85;8.95;;;14.80;99.90;;;;;;4978073;28;20090;-79
2021/08/28 00:27:23;;;;;;;20.55;9.48;;;14.70;99.90;;;;;;4976849;28;20083;-80
2021/08/28 00:29:50;;;;;;;14.60;8.38;;;14.80;99.90;;;;;;4977608;28;20133;-80
2021/08/28 00:32:17;;;;;;;21.55;7.75;;;14.80;99.90;;;;;;4978409;28;20050;-81
2021/08/28 00:34:44;;;;;;;15.15;7.78;;;14.80;99.90;;;;;;4977599;28;20437;-80
2021/08/28 00:37:11;;;;;;;17.27;8.63;;;14.80;99.90;;;;;;4977255;28;20078;-80
2021/08/28 00:39:38;;;;;;;14.40;8.25;;;14.80;99.90;;;;;;4978860;28;20142;-80
2021/08/28 00:42:05;;;;;;;18.35;8.57;;;14.80;99.90;;;;;;4978569;28;20105;-80
2021/08/28 00:44:37;;;;;;;15.73;8.45;;;14.90;99.90;;;;;;4979394;28;20086;-81
2021/08/28 00:47:04;;;;;;;21.15;9.05;;;14.90;99.90;;;;;;4980271;28;20142;-81
2021/08/28 00:49:31;;;;;;;23.70;8.82;;;14.90;99.90;;;;;;4980295;28;20130;-80
2021/08/28 00:51:59;;;;;;;18.63;8.82;;;14.90;99.90;;;;;;4985239;28;20081;-79
2021/08/28 00:54:25;;;;;;;15.00;8.73;;;14.90;99.90;;;;;;4987138;28;20085;-80
2021/08/28 00:56:52;;;;;;;16.10;9.55;;;15.00;99.90;;;;;;4987660;28;20465;-80
2021/08/28 00:59:19;;;;;;;18.67;11.10;;;15.00;99.90;;;;;;4992452;28;20058;-83
2021/08/28 01:01:49;;;;;;;24.58;12.18;;;14.90;99.90;;;;;;4993527;28;20089;-81
2021/08/28 01:04:20;;;;;;;22.08;11.95;;;15.00;99.90;;;;;;4987513;28;20135;-79
2021/08/28 01:06:51;;;;;;;22.92;12.25;;;14.90;99.90;;;;;;4984698;28;20521;-79
2021/08/28 01:09:22;;;;;;;20.38;12.32;;;14.90;99.90;;;;;;4986427;28;20054;-80
2021/08/28 01:11:53;;;;;;;19.02;11.88;;;14.90;99.90;;;;;;4987540;28;20078;-81
2021/08/28 01:14:25;;;;;;;19.50;12.27;;;14.90;99.90;;;;;;4985091;28;20047;-79
2021/08/28 01:16:56;;;;;;;25.67;12.43;;;14.90;99.90;;;;;;4987013;28;20089;-80
2021/08/28 01:19:42;;;;;;;21.88;12.10;;;14.80;99.90;;;;;;4986951;28;20089;-79
2021/08/28 01:22:11;;;;;;;24.45;12.63;;;14.80;99.90;;;;;;4986804;28;20078;-79
2021/08/28 01:24:39;;;;;;;22.10;13.02;;;14.90;99.90;;;;;;4981638;28;20074;-80
2021/08/28 01:27:14;;;;;;;20.75;13.52;;;14.90;99.90;;;;;;4982879;28;20079;-79
2021/08/28 01:29:43;;;;;;;23.83;13.32;;;14.90;99.90;;;;;;4982198;28;20086;-79
2021/08/28 01:32:13;;;;;;;24.65;13.27;;;15.00;99.90;;;;;;4979632;28;20088;-80
2021/08/28 01:34:41;;;;;;;24.88;13.60;;;15.00;99.90;;;;;;4978123;28;20138;-80
2021/08/28 01:37:12;;;;;;;22.20;13.70;;;15.00;99.90;;;;;;4977698;28;20059;-79
2021/08/28 01:39:40;;;;;;;25.52;13.05;;;15.00;99.90;;;;;;4978199;28;20074;-79
2021/08/28 01:42:08;;;;;;;25.52;14.38;;;15.10;99.90;;;;;;4980099;28;20093;-78
2021/08/28 01:44:37;;;;;;;23.23;13.93;;;15.10;99.90;;;;;;4978270;28;20077;-80
2021/08/28 01:47:07;;;;;;;25.40;13.88;;;15.10;99.90;;;;;;4980125;28;20073;-79
2021/08/28 01:49:34;;;;;;;27.90;15.10;;;15.00;99.90;;;;;;4973716;28;20520;-79
2021/08/28 01:52:01;;;;;;;22.45;13.65;;;15.00;99.90;;;;;;4974027;28;20057;-79
2021/08/28 01:54:29;;;;;;;24.05;14.70;;;15.00;99.90;;;;;;4973351;28;20053;-79
2021/08/28 01:56:56;;;;;;;28.15;14.50;;;15.00;99.90;;;;;;4976396;28;20051;-80
2021/08/28 01:59:23;;;;;;;24.08;14.57;;;15.10;99.90;;;;;;4978918;28;20137;-79
2021/08/28 02:01:50;;;;;;;29.25;14.93;;;15.10;99.90;;;;;;4979533;28;20111;-79
2021/08/28 02:04:18;;;;;;;31.10;15.50;;;15.10;99.90;;;;;;4975282;28;20089;-78
2021/08/28 02:07:00;;;;;;;21.10;13.88;;;15.10;99.90;;;;;;4975619;28;20082;-79
2021/08/28 02:09:34;;;;;;;30.50;14.93;;;15.10;99.90;;;;;;4976278;28;20134;-80
2021/08/28 02:12:04;;;;;;;24.52;15.15;;;15.10;99.90;;;;;;4976257;28;20082;-80
2021/08/28 02:14:37;;;;;;;26.55;15.40;;;15.20;99.90;;;;;;4975361;28;20125;-79
2021/08/28 02:17:07;;;;;;;27.23;16.77;;;15.20;99.90;;;;;;4974161;28;20567;-79
2021/08/28 02:19:39;;;;;;;25.60;16.98;;;15.10;99.90;;;;;;4975476;28;20047;-78
2021/08/28 02:22:12;;;;;;;28.20;18.10;;;15.10;99.90;;;;;;4974442;28;20546;-79
2021/08/28 02:24:42;;;;;;;33.13;20.65;;;15.10;99.90;;;;;;4975607;28;20115;-79
2021/08/28 02:27:14;;;;;;;31.92;21.33;;;15.10;99.90;;;;;;4979489;28;20046;-79
2021/08/28 02:29:47;;;;;;;35.05;22.20;;;15.10;99.90;;;;;;4980025;28;20111;-79
2021/08/28 02:32:16;;;;;;;31.38;22.58;;;15.10;99.90;;;;;;4978457;28;20345;-79
2021/08/28 02:34:45;;;;;;;36.38;21.70;;;15.10;99.90;;;;;;4978027;28;20171;-78
2021/08/28 02:37:15;;;;;;;33.80;22.85;;;15.20;99.90;;;;;;4978454;28;20583;-79
2021/08/28 02:39:44;;;;;;;34.90;22.77;;;15.20;99.90;;;;;;4979157;28;20423;-79
2021/08/28 02:42:13;;;;;;;30.63;21.38;;;15.20;99.90;;;;;;4979489;28;20082;-79
2021/08/28 02:44:42;;;;;;;38.80;20.65;;;15.30;99.90;;;;;;4978704;28;20093;-80
2021/08/28 02:47:09;;;;;;;35.70;22.25;;;15.30;99.90;;;;;;4978069;28;20043;-79
2021/08/28 02:49:39;;;;;;;34.58;22.05;;;15.30;99.90;;;;;;4976662;28;20407;-79
2021/08/28 02:52:09;;;;;;;38.97;22.17;;;15.30;99.90;;;;;;4976305;28;20146;-79
2021/08/28 02:54:40;;;;;;;35.00;22.05;;;15.30;99.90;;;;;;4975444;28;20138;-79
2021/08/28 02:57:08;;;;;;;34.95;22.10;;;15.30;99.90;;;;;;4975538;28;20138;-79
2021/08/28 02:59:36;;;;;;;33.20;21.00;;;15.30;99.90;;;;;;4975910;28;20515;-79
2021/08/28 03:02:04;;;;;;;31.25;21.25;;;15.30;99.90;;;;;;4976207;28;20142;-79
2021/08/28 03:04:32;;;;;;;31.63;21.25;;;15.20;99.90;;;;;;4975693;28;20086;-79
2021/08/28 03:06:59;;;;;;;29.70;21.20;;;15.20;99.90;;;;;;4976338;28;20081;-79
2021/08/28 03:09:28;;;;;;;35.53;22.17;;;15.30;99.90;;;;;;4976843;28;20077;-78
2021/08/28 03:11:58;;;;;;;36.63;22.50;;;15.20;99.90;;;;;;4978139;28;20054;-79
2021/08/28 03:14:26;;;;;;;45.08;23.75;;;15.20;99.90;;;;;;4979679;28;20086;-80
2021/08/28 03:16:54;;;;;;;35.80;22.65;;;15.20;99.90;;;;;;4979892;28;20133;-81
2021/08/28 03:19:24;;;;;;;39.05;23.33;;;15.20;99.90;;;;;;4978909;28;20051;-80
2021/08/28 03:21:52;;;;;;;37.97;24.15;;;15.30;99.90;;;;;;4982029;28;20118;-80
2021/08/28 03:24:23;;;;;;;42.33;24.27;;;15.30;99.90;;;;;;4982499;28;20088;-80
2021/08/28 03:26:53;;;;;;;40.17;24.92;;;15.30;99.90;;;;;;4984298;28;20082;-80
2021/08/28 03:29:22;;;;;;;41.47;25.15;;;15.30;99.90;;;;;;4982736;28;20150;-81
2021/08/28 03:31:51;;;;;;;43.35;26.33;;;15.30;99.90;;;;;;4980133;28;20149;-79
2021/08/28 03:34:18;;;;;;;41.05;26.52;;;15.30;99.90;;;;;;4979654;28;20055;-79
2021/08/28 03:36:45;;;;;;;46.22;27.65;;;15.20;99.90;;;;;;4978880;28;20138;-80
2021/08/28 03:39:12;;;;;;;43.88;27.38;;;15.20;99.90;;;;;;4981761;28;20057;-81
2021/08/28 03:41:40;;;;;;;43.97;26.65;;;15.20;99.90;;;;;;4981822;28;20137;-81
2021/08/28 03:44:14;;;;;;;42.28;27.35;;;15.30;99.90;;;;;;4981865;28;20423;-80
2021/08/28 03:46:41;;;;;;;49.65;27.23;;;15.30;99.90;;;;;;4981434;28;20542;-82
2021/08/28 03:49:08;;;;;;;43.72;27.85;;;15.30;99.90;;;;;;4982523;28;20085;-81
2021/08/28 03:51:35;;;;;;;42.53;27.33;;;15.20;99.90;;;;;;4982860;28;20086;-82
2021/08/28 03:54:02;;;;;;;49.85;28.58;;;15.20;99.90;;;;;;4981707;28;20110;-81
2021/08/28 03:56:29;;;;;;;52.42;28.88;;;15.20;99.90;;;;;;4981490;28;20050;-80
2021/08/28 03:58:56;;;;;;;50.60;29.63;;;15.20;99.90;;;;;;4980125;28;20078;-81
2021/08/28 04:01:24;;;;;;;43.95;27.05;;;15.30;99.90;;;;;;4980102;28;20138;-81
2021/08/28 04:03:52;;;;;;;51.75;29.83;;;15.30;99.90;;;;;;4978641;28;20138;-80
2021/08/28 04:06:19;;;;;;;52.90;29.48;;;15.30;99.90;;;;;;4977866;28;20047;-80
2021/08/28 04:08:47;;;;;;;50.10;29.33;;;15.30;99.90;;;;;;4980647;28;20082;-83
2021/08/28 04:11:14;;;;;;;49.35;29.52;;;15.30;99.90;;;;;;4981281;28;20074;-82
2021/08/28 04:13:41;;;;;;;46.45;29.52;;;15.30;99.90;;;;;;4981577;28;20085;-82
2021/08/28 04:16:08;;;;;;;51.97;29.50;;;15.40;99.90;;;;;;4981063;28;20125;-82
2021/08/28 04:18:36;;;;;;;45.50;28.60;;;15.40;99.90;;;;;;4982677;28;20090;-82
2021/08/28 04:21:03;;;;;;;44.03;28.17;;;15.40;99.90;;;;;;4982465;28;20082;-83
2021/08/28 04:23:30;;;;;;;51.20;29.08;;;15.40;99.90;;;;;;4982210;28;20093;-81
2021/08/28 04:25:56;;;;;;;44.92;28.75;;;15.40;99.90;;;;;;4978881;28;20086;-79
2021/08/28 04:28:23;;;;;;;44.95;29.02;;;15.40;99.90;;;;;;4977496;28;20503;-80
2021/08/28 04:30:50;;;;;;;42.40;27.33;;;15.40;99.90;;;;;;4977685;28;20110;-80
2021/08/28 04:33:17;;;;;;;48.53;27.88;;;15.40;99.90;;;;;;4980285;28;20119;-81
2021/08/28 04:35:45;;;;;;;47.67;28.17;;;15.40;99.90;;;;;;4980706;28;20074;-81
2021/08/28 04:38:12;;;;;;;39.55;28.35;;;15.30;99.90;;;;;;4979786;28;20094;-81
2021/08/28 04:40:39;;;;;;;40.60;27.77;;;15.40;99.90;;;;;;4980262;28;20059;-82
2021/08/28 04:43:06;;;;;;;38.95;26.75;;;15.40;99.90;;;;;;4980177;28;20133;-80
2021/08/28 04:45:33;;;;;;;41.85;27.00;;;15.40;99.90;;;;;;4981375;28;20082;-81
2021/08/28 04:48:00;;;;;;;39.85;27.60;;;15.50;99.90;;;;;;4979477;28;20090;-82
2021/08/28 04:50:27;;;;;;;37.63;26.80;;;15.50;99.90;;;;;;4966595;28;20081;-80
2021/08/28 04:52:55;;;;;;;40.30;27.33;;;15.50;99.90;;;;;;4980361;28;20125;-81
2021/08/28 04:55:22;;;;;;;44.63;27.20;;;15.50;99.90;;;;;;4991530;28;20137;-81
2021/08/28 04:57:49;;;;;;;44.83;26.88;;;15.50;99.90;;;;;;4980053;28;20111;-81
2021/08/28 05:00:16;;;;;;;41.13;27.92;;;15.60;99.90;;;;;;4976871;28;20109;-81
2021/08/28 05:02:43;;;;;;;43.53;27.45;;;15.60;99.90;;;;;;4977817;28;20133;-80
2021/08/28 05:05:11;;;;;;;46.42;27.73;;;15.60;99.90;;;;;;4978685;28;20459;-81
2021/08/28 05:07:38;;;;;;;40.65;28.45;;;15.50;99.90;;;;;;4963019;28;20129;-79
2021/08/28 05:10:06;;;;;;;47.60;27.98;;;15.50;99.90;;;;;;4977014;28;20057;-81
2021/08/28 05:12:33;;;;;;;39.30;28.48;;;15.50;99.90;;;;;;4961248;28;20094;-80
2021/08/28 05:15:00;;;;;;;46.85;30.30;;;15.50;99.90;;;;;;4957086;28;20055;-80
2021/08/28 05:17:28;;;;;;;40.38;28.10;;;15.60;99.90;;;;;;4957685;29;20138;-81
2021/08/28 05:19:55;;;;;;;37.95;26.52;;;15.60;99.90;;;;;;4957530;28;20529;-81
2021/08/28 05:22:22;;;;;;;40.53;27.88;;;15.60;99.90;;;;;;4956058;28;20051;-80
2021/08/28 05:24:49;;;;;;;38.30;27.08;;;15.60;99.90;;;;;;4954941;28;20134;-80
2021/08/28 05:27:17;;;;;;;48.47;28.65;;;15.60;99.90;;;;;;4954158;28;20082;-79
2021/08/28 05:29:44;;;;;;;36.95;26.02;;;15.60;99.90;;;;;;4953541;28;20138;-78
2021/08/28 05:32:11;;;;;;;40.17;27.00;;;15.60;99.90;;;;;;4968413;28;20455;-78
2021/08/28 05:34:38;;;;;;;35.97;26.02;;;15.70;99.90;;;;;;4971129;28;20148;-79
2021/08/28 05:37:05;;;;;;;37.97;25.67;;;15.60;99.90;;;;;;4972484;28;20105;-78
2021/08/28 05:39:32;;;;;;;39.30;25.98;;;15.60;99.90;;;;;;4972891;28;20562;-78
2021/08/28 05:41:59;;;;;;;33.35;24.05;;;15.60;99.90;;;;;;4972151;28;20142;-78
2021/08/28 05:44:27;;;;;;;34.72;24.63;;;15.60;99.90;;;;;;4970601;28;20050;-77
2021/08/28 05:46:54;;;;;;;33.10;26.45;;;15.70;99.90;;;;;;4972036;28;20085;-78
2021/08/28 05:49:21;;;;;;;42.10;28.65;;;15.70;99.90;;;;;;4981898;28;20430;-79
2021/08/28 05:51:48;;;;;;;36.40;28.88;;;15.70;99.90;;;;;;4991882;28;20081;-78
2021/08/28 05:54:15;;;;;;;41.58;31.05;;;15.70;99.90;;;;;;4976548;28;20054;-77
2021/08/28 05:56:42;;;;;;;43.65;31.58;;;15.70;99.90;;;;;;4959586;28;20056;-77
2021/08/28 05:59:08;;;;;;;42.58;29.48;;;15.70;99.90;;;;;;4991334;28;20089;-77
2021/08/28 06:01:37;;;;;;;43.80;30.35;;;15.70;99.90;;;;;;4992042;28;20080;-76
2021/08/28 06:04:04;;;;;;;49.92;31.35;;;15.70;99.90;;;;;;4973878;28;20065;-82
2021/08/28 06:06:31;;;;;;;43.42;31.70;;;15.70;99.90;;;;;;4989482;28;20050;-78
2021/08/28 06:08:57;;;;;;;43.40;29.92;;;15.70;99.90;;;;;;4991226;28;20575;-77
2021/08/28 06:11:25;;;;;;;38.00;27.33;;;15.70;99.90;;;;;;4991331;28;20054;-80
2021/08/28 06:13:54;;;;;;;33.00;23.05;;;15.70;99.90;;;;;;4981323;28;20074;-79
2021/08/28 06:16:21;;;;;;;25.95;22.00;;;15.60;99.90;;;;;;5009759;23;20461;-82
2021/08/28 06:18:59;;;;;;;25.27;22.58;;;15.60;99.90;;;;;;5010759;28;20110;-80
2021/08/28 06:21:26;;;;;;;26.15;20.98;;;15.50;99.90;;;;;;4998777;28;20097;-81
2021/08/28 06:23:53;;;;;;;21.58;18.65;;;15.50;99.90;;;;;;4999515;28;20517;-81
2021/08/28 06:26:20;;;;;;;22.08;18.88;;;15.50;99.90;;;;;;4996329;28;20137;-81
2021/08/28 06:28:47;;;;;;;24.13;18.23;;;15.50;99.90;;;;;;5007043;28;20125;-82
2021/08/28 06:31:14;;;;;;;22.42;17.80;;;15.60;99.90;;;;;;5018372;28;20133;-81
2021/08/28 06:33:41;;;;;;;23.38;17.88;;;15.60;99.90;;;;;;5019274;28;20081;-81
2021/08/28 06:36:09;;;;;;;23.50;18.42;;;15.60;99.90;;;;;;5022222;28;20077;-79
2021/08/28 06:38:36;;;;;;;24.65;19.60;;;15.60;99.90;;;;;;5021165;28;20046;-81
2021/08/28 06:41:03;;;;;;;27.83;20.80;;;15.70;99.90;;;;;;5023003;28;20050;-79
2021/08/28 06:43:30;;;;;;;24.35;21.33;;;15.70;99.90;;;;;;5024231;28;20097;-81
2021/08/28 06:45:57;;;;;;;27.25;22.23;;;15.70;99.90;;;;;;5020877;28;20580;-82
2021/08/28 06:48:24;;;;;;;28.60;23.05;;;15.70;99.90;;;;;;5019957;28;20114;-80
2021/08/28 06:50:51;;;;;;;27.90;23.45;;;15.70;99.90;;;;;;5018981;28;20518;-82
2021/08/28 06:53:19;;;;;;;30.00;23.40;;;15.80;99.90;;;;;;5019360;28;20174;-82
2021/08/28 06:55:46;;;;;;;28.70;22.50;;;15.80;99.90;;;;;;5017869;28;20081;-82
2021/08/28 06:58:13;;;;;;;26.35;21.25;;;15.90;99.90;;;;;;5020779;28;20077;-81
2021/08/28 07:00:40;;;;;;;29.50;22.23;;;16.00;99.90;;;;;;5018426;28;20398;-81
2021/08/28 07:03:07;;;;;;;30.20;23.40;;;16.00;99.90;;;;;;5018635;28;20076;-77
2021/08/28 07:05:34;;;;;;;29.92;22.95;;;16.10;99.90;;;;;;5017424;28;20081;-77
2021/08/28 07:08:01;;;;;;;29.38;21.98;;;16.10;99.90;;;;;;5017028;28;20181;-81
2021/08/28 07:10:29;;;;;;;30.05;22.15;;;16.20;99.90;;;;;;5014314;28;20046;-76
2021/08/28 07:12:56;;;;;;;26.40;23.52;;;16.30;99.90;;;;;;5022855;28;20054;-82
2021/08/28 07:15:23;;;;;;;25.67;21.50;;;16.30;99.90;;;;;;5024568;28;20053;-80
2021/08/28 07:17:50;;;;;;;25.33;22.05;;;16.30;99.90;;;;;;5025246;28;20108;-84
2021/08/28 07:20:16;;;;;;;26.38;22.38;;;16.30;99.90;;;;;;5017954;28;20113;-83
2021/08/28 07:22:43;;;;;;;26.08;22.23;;;16.20;99.90;;;;;;5020646;28;20049;-82
2021/08/28 07:25:11;;;;;;;24.23;20.90;;;16.20;99.90;;;;;;5017786;28;20104;-82
2021/08/28 07:27:40;;;;;;;24.38;20.65;;;16.20;99.90;;;;;;5018751;28;20053;-80
2021/08/28 07:30:07;;;;;;;27.25;21.63;;;16.20;99.90;;;;;;5018513;28;20138;-80
2021/08/28 07:32:35;;;;;;;28.13;21.33;;;16.30;99.90;;;;;;5018548;28;20140;-82
2021/08/28 07:35:02;;;;;;;28.17;20.98;;;16.20;99.90;;;;;;5014219;28;20069;-78
2021/08/28 07:37:29;;;;;;;30.02;21.98;;;16.30;99.90;;;;;;5021503;28;20046;-83
2021/08/28 07:39:55;;;;;;;29.77;21.63;;;16.40;99.90;;;;;;5019509;28;20101;-84
2021/08/28 07:42:22;;;;;;;28.77;21.50;;;16.50;99.90;;;;;;5025518;28;20081;-79
2021/08/28 07:44:50;;;;;;;26.30;22.20;;;16.50;99.90;;;;;;5022628;28;20081;-79
2021/08/28 07:47:17;;;;;;;25.17;21.48;;;16.40;99.90;;;;;;5021211;28;20129;-79
2021/08/28 07:49:44;;;;;;;32.00;21.95;;;16.50;99.90;;;;;;5021358;28;20472;-79
2021/08/28 07:52:11;;;;;;;28.60;23.15;;;16.50;99.90;;;;;;5024272;28;20092;-80
2021/08/28 07:54:38;;;;;;;31.75;22.92;;;16.60;99.90;;;;;;5001631;28;20105;-80
2021/08/28 07:57:05;;;;;;;30.02;23.05;;;16.60;99.90;;;;;;5003181;28;20129;-80
2021/08/28 07:59:32;;;;;;;24.65;21.92;;;16.70;99.90;;;;;;5013774;28;20478;-80
2021/08/28 08:02:00;;;;;;;26.73;22.80;;;16.70;99.90;;;;;;5022797;28;20129;-79
2021/08/28 08:04:27;;;;;;;24.52;20.95;;;16.80;99.90;;;;;;5022675;28;20046;-81
2021/08/28 08:06:54;;;;;;;26.42;19.95;;;16.80;99.90;;;;;;5022665;28;20509;-78
2021/08/28 08:09:21;;;;;;;24.73;19.83;;;16.80;99.90;;;;;;5022139;28;20521;-80
2021/08/28 08:11:48;;;;;;;27.35;20.27;;;16.90;99.90;;;;;;5023455;28;20107;-80
2021/08/28 08:14:18;;;;;;;25.58;18.15;;;17.00;99.90;;;;;;5023028;28;20113;-81
2021/08/28 08:16:44;;;;;;;26.30;19.75;;;17.00;99.90;;;;;;5022524;28;20069;-83
2021/08/28 08:19:13;;;;;;;26.30;20.50;;;17.00;99.90;;;;;;5020180;28;20153;-81
2021/08/28 08:21:40;;;;;;;21.42;19.20;;;17.10;99.90;;;;;;5022533;28;20053;-81
2021/08/28 08:24:07;;;;;;;22.70;19.52;;;17.20;99.90;;;;;;5022974;28;20073;-82
2021/08/28 08:26:34;;;;;;;22.92;19.02;;;17.30;99.90;;;;;;5023349;28;20077;-80
2021/08/28 08:29:01;;;;;;;25.70;19.42;;;17.40;99.90;;;;;;5019262;28;20056;-80
2021/08/28 08:31:27;;;;;;;25.67;19.58;;;17.40;99.90;;;;;;5017636;28;20057;-79
2021/08/28 08:33:54;;;;;;;22.90;19.52;;;17.40;99.90;;;;;;5017363;28;20593;-80
2021/08/28 08:36:23;;;;;;;23.05;19.40;;;17.30;99.90;;;;;;5017279;28;20081;-81
2021/08/28 08:38:49;;;;;;;22.02;19.63;;;17.30;99.90;;;;;;5016237;28;20046;-79
2021/08/28 08:41:18;;;;;;;20.92;18.70;;;17.30;99.90;;;;;;5016220;28;20188;-80
2021/08/28 08:43:47;;;;;;;21.65;18.98;;;17.20;99.90;;;;;;5018031;28;20114;-80
2021/08/28 08:46:14;;;;;;;21.67;17.48;;;17.30;99.90;;;;;;5017356;28;20081;-81
2021/08/28 08:48:42;;;;;;;23.70;18.08;;;17.40;99.90;;;;;;5018730;28;20480;-81
2021/08/28 08:51:10;;;;;;;19.35;16.48;;;17.40;99.90;;;;;;5018029;28;20390;-81
2021/08/28 08:53:39;;;;;;;20.23;16.85;;;17.60;99.90;;;;;;5018388;28;20057;-82
2021/08/28 08:56:07;;;;;;;21.48;16.92;;;17.60;99.90;;;;;;5016684;28;20148;-82
2021/08/28 08:58:34;;;;;;;19.50;15.52;;;17.70;99.90;;;;;;5017654;28;20115;-82
2021/08/28 09:01:03;;;;;;;17.65;14.52;;;18.20;99.90;;;;;;5017298;28;20074;-81
2021/08/28 09:03:30;;;;;;;15.82;13.57;;;18.80;99.90;;;;;;5017202;28;20050;-82
2021/08/28 09:05:57;;;;;;;17.45;12.70;;;19.50;99.90;;;;;;5019008;28;20073;-78
2021/08/28 09:08:24;;;;;;;15.18;12.70;;;20.00;99.90;;;;;;5014451;28;20654;-77
2021/08/28 09:10:52;;;;;;;18.25;14.55;;;20.20;99.90;;;;;;5013007;28;20464;-78
2021/08/28 09:13:23;;;;;;;17.58;15.07;;;20.20;99.90;;;;;;5017819;28;20056;-79
2021/08/28 09:15:54;;;;;;;19.70;15.68;;;20.00;99.90;;;;;;5018319;28;20474;-78
2021/08/28 09:18:21;;;;;;;18.65;15.40;;;20.00;99.90;;;;;;5017748;28;20080;-78
2021/08/28 09:20:48;;;;;;;21.45;15.13;;;20.10;99.90;;;;;;5016655;28;20486;-79
2021/08/28 09:23:16;;;;;;;19.10;14.65;;;20.20;99.90;;;;;;5017964;28;20129;-78
2021/08/28 09:25:48;;;;;;;17.30;13.88;;;20.00;99.90;;;;;;5017722;28;20050;-79
2021/08/28 09:28:18;;;;;;;14.70;11.67;;;19.50;99.90;;;;;;5018103;28;20100;-79
2021/08/28 09:30:49;;;;;;;12.93;10.75;;;19.10;99.90;;;;;;5016706;28;20304;-77
2021/08/28 09:33:18;;;;;;;11.02;9.18;;;18.90;99.90;;;;;;5017089;28;20077;-79
2021/08/28 09:35:49;;;;;;;12.85;9.48;;;18.60;99.90;;;;;;5015478;28;20054;-80
2021/08/28 09:38:19;;;;;;;11.32;9.85;;;18.50;99.90;;;;;;5015274;28;20133;-79
2021/08/28 09:40:47;;;;;;;14.32;10.15;;;18.60;99.90;;;;;;5014265;28;20085;-79
2021/08/28 09:43:17;;;;;;;16.13;10.52;;;18.80;99.90;;;;;;5021652;28;20113;-80
2021/08/28 09:45:46;;;;;;;14.10;10.93;;;19.10;99.90;;;;;;5017551;28;20092;-78
2021/08/28 09:48:14;;;;;;;14.90;12.10;;;18.90;99.90;;;;;;5013668;28;20100;-78
2021/08/28 09:50:43;;;;;;;12.93;10.63;;;19.00;99.90;;;;;;5014287;28;20056;-79
2021/08/28 09:53:12;;;;;;;14.10;11.00;;;19.20;99.90;;;;;;5013716;28;20089;-78
2021/08/28 09:55:40;;;;;;;12.88;9.85;;;19.30;99.90;;;;;;5013426;28;20045;-78
2021/08/28 09:58:08;;;;;;;12.32;11.00;;;19.40;99.90;;;;;;5012219;28;20078;-78
2021/08/28 10:00:42;;;;;;;10.88;9.88;;;19.40;99.90;;;;;;5012148;28;20049;-78
2021/08/28 10:03:09;;;;;;;11.65;10.15;;;19.30;99.90;;;;;;5012664;28;20058;-78
2021/08/28 10:05:37;;;;;;;11.93;9.88;;;19.30;99.90;;;;;;5012572;28;20072;-77
2021/08/28 10:08:06;;;;;;;14.30;10.35;;;19.30;99.90;;;;;;5011833;28;20128;-78
2021/08/28 10:10:35;;;;;;;11.73;9.52;;;19.30;99.90;;;;;;5012789;28;20054;-78
2021/08/28 10:13:04;;;;;;;10.70;9.68;;;19.40;99.90;;;;;;5012494;28;20493;-78
2021/08/28 10:15:33;;;;;;;10.50;9.25;;;19.40;99.90;;;;;;5012468;28;20049;-78
2021/08/28 10:18:04;;;;;;;10.93;9.60;;;19.40;99.90;;;;;;5012667;28;20080;-78
2021/08/28 10:20:32;;;;;;;11.52;9.57;;;19.40;99.90;;;;;;5012414;28;20421;-78
2021/08/28 10:23:03;;;;;;;13.88;8.90;;;19.30;99.90;;;;;;5012068;28;20065;-79
2021/08/28 10:25:31;;;;;;;10.18;9.10;;;19.10;99.90;;;;;;5011477;28;20438;-78
2021/08/28 10:28:01;;;;;;;11.60;8.85;;;18.90;99.90;;;;;;5011330;28;20132;-78
2021/08/28 10:30:28;;;;;;;11.20;10.02;;;18.80;99.90;;;;;;5011722;28;20045;-78
2021/08/28 10:32:55;;;;;;;14.23;12.20;;;18.80;99.90;;;;;;5012056;28;20460;-78
2021/08/28 10:35:24;;;;;;;13.20;9.63;;;18.90;99.90;;;;;;5011129;28;20144;-78
2021/08/28 10:37:51;;;;;;;9.93;8.93;;;18.80;99.90;;;;;;5011731;28;20050;-78
2021/08/28 10:40:21;;;;;;;9.85;8.80;;;18.90;99.90;;;;;;5011976;28;20056;-78
2021/08/28 10:42:51;;;;;;;11.13;9.07;;;18.90;99.90;;;;;;5011841;28;20117;-78
2021/08/28 10:45:25;;;;;;;11.60;9.02;;;18.90;99.90;;;;;;5012127;28;20077;-78
2021/08/28 10:47:57;;;;;;;10.75;8.85;;;18.80;99.90;;;;;;5015609;28;20398;-78
2021/08/28 10:50:30;;;;;;;10.43;9.10;;;18.80;99.90;;;;;;5015712;28;20057;-78
2021/08/28 10:52:59;;;;;;;9.48;8.32;;;18.60;99.90;;;;;;5015465;28;20104;-78
2021/08/28 10:55:36;;;;;;;10.23;8.20;;;18.50;99.90;;;;;;5015422;28;20112;-78
2021/08/28 10:58:17;;;;;;;8.80;7.90;;;18.40;99.90;;;;;;5015585;28;20041;-78
2021/08/28 11:00:45;;;;;;;8.07;7.13;;;18.40;99.90;;;;;;5015678;28;20078;-79
2021/08/28 11:03:27;;;;;;;7.40;6.47;;;18.30;99.90;;;;;;5016636;28;20137;-77
2021/08/28 11:06:29;;;;;;;8.35;7.07;;;18.30;99.90;;;;;;5017125;28;20050;-77
2021/08/28 11:08:59;;;;;;;8.30;7.00;;;18.30;99.90;;;;;;5016986;28;20053;-80
2021/08/28 11:11:29;;;;;;;9.38;7.50;;;18.40;99.90;;;;;;5019508;28;20058;-78
2021/08/28 11:14:01;;;;;;;8.55;7.68;;;18.50;99.90;;;;;;5016427;28;20540;-78
2021/08/28 11:16:53;;;;;;;7.85;7.05;;;18.60;99.90;;;;;;5014415;28;20096;-78
2021/08/28 11:19:37;;;;;;;9.20;6.70;;;18.80;99.90;;;;;;5005826;28;20429;-77
2021/08/28 11:22:21;;;;;;;7.88;6.90;;;19.10;99.90;;;;;;5013462;28;20068;-78
2021/08/28 11:24:59;;;;;;;7.82;7.00;;;19.30;99.90;;;;;;5013909;28;20137;-78
2021/08/28 11:27:43;;;;;;;7.72;6.40;;;19.50;99.90;;;;;;5014783;28;20050;-79
2021/08/28 11:30:11;;;;;;;7.43;6.70;;;19.70;99.90;;;;;;5014780;28;20129;-78
2021/08/28 11:32:38;;;;;;;8.18;6.90;;;19.80;99.90;;;;;;5014397;28;20136;-77
2021/08/28 11:35:07;;;;;;;8.70;6.90;;;19.80;99.90;;;;;;5014491;28;20492;-78
2021/08/28 11:37:42;;;;;;;8.48;6.68;;;19.80;99.90;;;;;;5014198;28;20046;-78
2021/08/28 11:40:30;;;;;;;7.70;6.90;;;19.70;99.90;;;;;;5014344;28;20108;-76
2021/08/28 11:42:57;;;;;;;8.68;5.90;;;19.80;99.90;;;;;;5014264;28;20054;-77
2021/08/28 11:45:38;;;;;;;6.07;5.47;;;19.80;99.90;;;;;;5014244;28;20064;-78
2021/08/28 11:48:11;;;;;;;6.70;5.97;;;19.80;99.90;;;;;;5014061;28;20089;-78
2021/08/28 11:50:39;;;;;;;6.35;5.60;;;20.10;99.90;;;;;;5014528;28;20695;-78
2021/08/28 11:53:07;;;;;;;7.90;5.68;;;20.20;99.90;;;;;;5014038;28;20049;-78
2021/08/28 11:55:36;;;;;;;7.30;5.82;;;20.30;99.90;;;;;;5014875;28;20079;-74
2021/08/28 11:58:08;;;;;;;6.53;5.70;;;20.40;99.90;;;;;;5013742;28;20245;-77
2021/08/28 12:00:37;;;;;;;6.35;5.63;;;20.50;99.90;;;;;;5014462;28;20557;-78
2021/08/28 12:03:07;;;;;;;6.93;6.22;;;20.40;99.90;;;;;;5013743;28;20137;-77
2021/08/28 12:05:35;;;;;;;8.85;6.30;;;20.20;99.90;;;;;;5013724;28;20056;-75
2021/08/28 12:08:03;;;;;;;7.43;6.25;;;19.90;99.90;;;;;;5014480;28;20050;-78
2021/08/28 12:10:32;;;;;;;7.15;6.45;;;19.90;99.90;;;;;;5015295;28;20050;-78
2021/08/28 12:13:01;;;;;;;6.95;6.07;;;19.80;99.90;;;;;;5013957;28;20046;-78
2021/08/28 12:15:29;;;;;;;7.85;6.70;;;19.60;99.90;;;;;;5014493;28;20058;-78
2021/08/28 12:20:25;;;;;;;7.68;6.45;;;19.90;99.90;;;;;;5012101;28;20062;-75
2021/08/28 12:22:53;;;;;;;9.10;6.60;;;19.80;99.90;;;;;;4996848;28;20427;-77
2021/08/28 12:25:20;;;;;;;7.30;6.55;;;19.80;99.90;;;;;;4994571;28;20047;-76
2021/08/28 12:27:50;;;;;;;7.55;6.43;;;19.80;99.90;;;;;;4994500;28;20056;-76
2021/08/28 12:30:17;;;;;;;7.95;6.13;;;19.90;99.90;;;;;;4994864;28;20084;-76
2021/08/28 12:32:44;;;;;;;9.18;6.95;;;20.10;99.90;;;;;;4994251;28;20122;-76
2021/08/28 12:35:11;;;;;;;7.78;6.90;;;20.10;99.90;;;;;;4994062;28;20058;-76
2021/08/28 12:37:39;;;;;;;7.65;6.70;;;20.10;99.90;;;;;;4993533;28;20137;-77
2021/08/28 12:40:09;;;;;;;8.95;7.20;;;20.00;99.90;;;;;;4993330;28;20478;-76
2021/08/28 12:42:37;;;;;;;7.43;6.53;;;20.10;99.90;;;;;;4993399;28;20062;-76